Godwin, North Carolina
Current Conditions -  °F | °C
As of 10:55 AM on Thursday 23 Oct 2014 (Local Time) from KHRJ Reporting Station
Clear Clear  
Wind Chill: 59°   Ceiling: Unl
Heat Index: 59°   Visibility: 10mi
Dew Point: 42°   Wind: 7mph
Humidity: 53%   Direction: 340°NNW
Pressure: 30.03"   Gusts: NA
Location:  35.22°N, 78.68°W
Report Text: KHRJ 231455Z AUTO 34006KT 10SM CLR 15/06 A3003 RMK AO2 T01510056
Loading
Personal Weather Stations






























Interactive Weather Map
Tropical Storm Tracking
New forecast layout! Learn more

10-Day Weather Forecast

Advertisements
Track Severe Weather on mobile